Time;durP1;ratioP1;P1;durP2;ratioP2;P2;SDS_P1;SDS_P2;PMS_P1;PMS_P2;Temp;Humidity;BMP_temperature;BMP_pressure;BME280_temperature;BME280_humidity;BME280_pressure;Samples;Min_cycle;Max_cycle;Signal;HPM_P1;HPM_P2
2023/05/04 03:02:00;;;;;;;15.33;13.93;;;6.50;99.90;;;;;;5260400;23;20331;-76
2023/05/04 03:04:26;;;;;;;14.77;13.57;;;6.60;99.90;;;;;;4994271;28;20263;-76
2023/05/04 03:06:52;;;;;;;16.20;14.83;;;6.50;99.90;;;;;;4993892;28;20184;-75
2023/05/04 03:09:17;;;;;;;15.73;14.17;;;6.50;99.90;;;;;;4994050;28;20184;-75
2023/05/04 03:11:43;;;;;;;15.50;14.00;;;6.50;99.90;;;;;;4997497;28;20207;-75
2023/05/04 03:14:09;;;;;;;17.60;15.90;;;6.50;99.90;;;;;;4993028;28;20636;-75
2023/05/04 03:16:35;;;;;;;15.63;14.33;;;6.60;99.90;;;;;;5004305;23;20308;-84
2023/05/04 03:19:01;;;;;;;15.40;13.90;;;6.60;99.90;;;;;;4981799;28;20181;-85
2023/05/04 03:21:27;;;;;;;15.77;14.30;;;6.60;99.90;;;;;;4980917;28;20212;-85
2023/05/04 03:23:53;;;;;;;16.13;14.47;;;6.50;99.90;;;;;;4981952;28;20330;-84
2023/05/04 03:26:20;;;;;;;14.73;13.33;;;6.50;99.90;;;;;;4994871;28;20185;-83
2023/05/04 03:28:45;;;;;;;15.00;13.57;;;6.50;99.90;;;;;;4992725;28;20188;-84
2023/05/04 03:31:11;;;;;;;14.67;13.37;;;6.50;99.90;;;;;;4974128;28;20204;-84
2023/05/04 03:33:37;;;;;;;22.53;20.77;;;6.50;99.90;;;;;;4975145;28;20605;-84
2023/05/04 03:36:03;;;;;;;14.10;12.83;;;6.40;99.90;;;;;;4954870;28;20217;-84
2023/05/04 03:38:30;;;;;;;15.73;14.43;;;6.40;99.90;;;;;;4954562;29;20186;-83
2023/05/04 03:40:56;;;;;;;16.33;14.50;;;6.40;99.90;;;;;;4954777;29;20239;-83
2023/05/04 03:43:22;;;;;;;15.67;14.23;;;6.40;99.90;;;;;;4955100;29;20209;-83
2023/05/04 03:45:47;;;;;;;16.53;15.20;;;6.30;99.90;;;;;;4971512;28;20621;-83
2023/05/04 03:48:13;;;;;;;13.70;12.60;;;6.30;99.90;;;;;;4960567;28;20233;-82
2023/05/04 03:50:39;;;;;;;22.20;20.40;;;6.30;99.90;;;;;;4955559;29;20280;-84
2023/05/04 03:53:05;;;;;;;15.40;13.63;;;6.40;99.90;;;;;;4959161;28;20185;-84
2023/05/04 03:55:33;;;;;;;15.43;14.13;;;6.30;99.90;;;;;;4976950;28;20216;-84
2023/05/04 03:57:59;;;;;;;15.47;13.97;;;6.30;99.90;;;;;;4985312;28;20196;-84
2023/05/04 04:00:26;;;;;;;19.10;17.50;;;6.30;99.90;;;;;;4980222;28;20235;-84
2023/05/04 04:02:52;;;;;;;25.10;23.37;;;6.30;99.90;;;;;;4973701;28;20205;-84
2023/05/04 04:05:17;;;;;;;20.80;19.13;;;6.30;99.90;;;;;;4960068;29;20225;-83
2023/05/04 04:07:43;;;;;;;22.67;20.97;;;6.30;99.90;;;;;;4958469;28;20601;-84
2023/05/04 04:10:09;;;;;;;23.53;21.83;;;6.30;99.90;;;;;;4960098;28;20266;-82
2023/05/04 04:12:35;;;;;;;19.87;18.33;;;6.30;99.90;;;;;;4953536;28;20193;-84
2023/05/04 04:15:01;;;;;;;13.57;12.27;;;6.30;99.90;;;;;;4953746;28;20232;-84
2023/05/04 04:17:27;;;;;;;14.70;13.20;;;6.40;99.90;;;;;;4969134;28;20193;-78
2023/05/04 04:19:52;;;;;;;13.20;11.87;;;6.40;99.90;;;;;;4961925;28;20638;-81
2023/05/04 04:22:18;;;;;;;12.43;11.33;;;6.40;99.90;;;;;;4955287;28;20233;-81
2023/05/04 04:24:44;;;;;;;17.27;12.97;;;6.40;99.90;;;;;;4954337;29;20173;-81
2023/05/04 04:27:10;;;;;;;14.73;13.17;;;6.40;99.90;;;;;;4956244;29;20181;-80
2023/05/04 04:29:35;;;;;;;13.83;12.60;;;6.40;99.90;;;;;;4962062;29;20277;-81
2023/05/04 04:32:02;;;;;;;15.90;14.50;;;6.50;99.90;;;;;;4964484;28;20200;-81
2023/05/04 04:34:28;;;;;;;15.67;13.00;;;6.50;99.90;;;;;;4956147;28;20190;-80
2023/05/04 04:36:53;;;;;;;18.90;13.90;;;6.50;99.90;;;;;;4956780;28;20213;-80
2023/05/04 04:39:19;;;;;;;14.23;11.27;;;6.60;99.90;;;;;;4956287;28;20257;-80
2023/05/04 04:41:45;;;;;;;15.40;12.67;;;6.70;99.90;;;;;;4955064;29;20724;-80
2023/05/04 04:44:11;;;;;;;15.90;13.33;;;6.80;99.90;;;;;;4956454;29;20178;-80
2023/05/04 04:46:37;;;;;;;14.93;13.53;;;6.80;99.90;;;;;;4962457;28;20205;-81
2023/05/04 04:49:03;;;;;;;15.63;14.13;;;6.80;99.90;;;;;;4960576;28;20184;-80
2023/05/04 04:51:29;;;;;;;15.93;14.63;;;6.90;99.90;;;;;;4966275;29;20277;-79
2023/05/04 04:53:54;;;;;;;16.90;15.40;;;7.10;99.90;;;;;;4969164;28;20189;-79
2023/05/04 04:56:20;;;;;;;19.70;18.20;;;7.20;99.90;;;;;;4957079;28;20324;-80
2023/05/04 04:58:47;;;;;;;34.10;31.40;;;7.30;99.90;;;;;;4956697;28;20192;-80
2023/05/04 05:01:16;;;;;;;12.47;11.37;;;7.40;99.90;;;;;;4956374;28;20217;-80
2023/05/04 05:03:45;;;;;;;23.13;17.57;;;7.50;99.90;;;;;;4957141;28;20197;-80
2023/05/04 05:06:12;;;;;;;16.90;15.50;;;7.60;99.90;;;;;;4959091;28;20201;-80
2023/05/04 05:08:39;;;;;;;24.93;22.37;;;7.70;99.90;;;;;;4964040;28;20178;-79
2023/05/04 05:11:05;;;;;;;22.53;20.33;;;8.00;99.90;;;;;;4969585;29;20219;-79
2023/05/04 05:13:31;;;;;;;17.17;13.20;;;8.30;99.90;;;;;;4970767;28;20188;-80
2023/05/04 05:15:56;;;;;;;57.80;54.00;;;8.50;99.90;;;;;;4965346;28;20239;-80
2023/05/04 05:18:23;;;;;;;88.63;83.70;;;8.80;99.90;;;;;;4954939;28;20186;-80
2023/05/04 05:20:49;;;;;;;38.27;35.83;;;9.10;99.90;;;;;;4953892;28;20708;-80
2023/05/04 05:23:15;;;;;;;14.30;12.87;;;9.50;99.90;;;;;;4955172;28;20209;-80
2023/05/04 05:25:42;;;;;;;41.93;39.13;;;10.00;99.90;;;;;;4954672;28;20205;-80
2023/05/04 05:28:09;;;;;;;37.87;35.27;;;10.40;99.90;;;;;;4954747;28;20181;-80
2023/05/04 05:30:34;;;;;;;16.90;15.37;;;10.80;99.90;;;;;;4954218;28;20745;-79
2023/05/04 05:33:02;;;;;;;18.17;16.27;;;11.10;99.90;;;;;;4949186;28;20273;-80
2023/05/04 05:35:28;;;;;;;15.70;14.40;;;11.40;99.90;;;;;;4941892;28;20694;-80
2023/05/04 05:37:55;;;;;;;11.53;9.37;;;11.90;99.90;;;;;;4934813;29;20229;-78
2023/05/04 05:40:21;;;;;;;13.97;12.77;;;12.40;99.90;;;;;;4951863;29;20583;-77
2023/05/04 05:42:47;;;;;;;31.97;29.80;;;13.00;99.90;;;;;;4954602;28;20178;-78
2023/05/04 05:45:13;;;;;;;46.67;43.60;;;13.40;99.90;;;;;;4955177;28;20205;-78
2023/05/04 05:47:39;;;;;;;19.50;18.10;;;13.70;99.90;;;;;;4953710;28;20265;-78
2023/05/04 05:50:07;;;;;;;11.97;11.07;;;14.10;99.90;;;;;;4953473;29;20209;-78
2023/05/04 05:52:33;;;;;;;9.63;8.77;;;14.40;99.90;;;;;;4953225;28;20188;-78
2023/05/04 05:54:58;;;;;;;10.43;9.47;;;14.60;99.90;;;;;;4952948;28;20210;-78
2023/05/04 05:57:24;;;;;;;13.03;11.93;;;14.90;99.90;;;;;;4953081;28;20221;-78
2023/05/04 05:59:50;;;;;;;10.87;9.90;;;15.00;99.90;;;;;;4952596;28;20213;-77
2023/05/04 06:02:16;;;;;;;9.33;8.47;;;15.40;99.90;;;;;;4952729;28;20684;-77
2023/05/04 06:04:43;;;;;;;12.43;11.40;;;15.60;99.90;;;;;;4953301;28;20241;-77
2023/05/04 06:07:09;;;;;;;12.63;11.50;;;15.80;99.90;;;;;;4954966;28;20225;-77
2023/05/04 06:09:35;;;;;;;13.53;12.43;;;15.50;99.90;;;;;;4952277;28;20182;-76
2023/05/04 06:12:03;;;;;;;16.50;15.13;;;15.40;99.90;;;;;;4952670;28;20232;-77
2023/05/04 06:14:29;;;;;;;9.53;8.77;;;15.50;99.90;;;;;;4952508;29;20192;-77
2023/05/04 06:16:55;;;;;;;14.93;13.43;;;15.50;99.90;;;;;;4951868;28;20586;-77
2023/05/04 06:19:21;;;;;;;13.90;12.90;;;15.60;99.90;;;;;;4951613;28;20692;-77
2023/05/04 06:21:48;;;;;;;15.17;13.87;;;16.30;99.90;;;;;;4952651;28;20308;-77
2023/05/04 06:24:14;;;;;;;12.20;11.23;;;16.50;99.90;;;;;;4952377;28;20277;-77
2023/05/04 06:26:39;;;;;;;13.50;12.30;;;17.00;99.90;;;;;;4951094;28;20289;-76
2023/05/04 06:29:05;;;;;;;14.07;13.07;;;16.70;99.90;;;;;;4952157;28;20182;-77
2023/05/04 06:31:31;;;;;;;13.20;12.03;;;16.70;99.90;;;;;;4952634;28;20186;-77
2023/05/04 06:33:57;;;;;;;14.07;12.93;;;16.70;99.90;;;;;;4980748;28;20296;-77
2023/05/04 06:36:24;;;;;;;14.97;13.77;;;17.20;99.90;;;;;;4979049;28;20226;-77
2023/05/04 06:38:50;;;;;;;15.97;14.53;;;17.40;99.90;;;;;;4980493;28;20201;-77
2023/05/04 06:41:16;;;;;;;14.83;13.80;;;17.50;99.90;;;;;;4969847;28;20237;-77
2023/05/04 06:43:42;;;;;;;13.27;12.13;;;18.30;99.90;;;;;;4959163;29;20568;-76
2023/05/04 06:46:08;;;;;;;14.17;12.80;;;18.60;99.90;;;;;;4956133;28;20284;-76
2023/05/04 06:48:34;;;;;;;20.00;18.40;;;18.50;99.90;;;;;;4954998;29;20233;-76
2023/05/04 06:51:00;;;;;;;18.20;16.92;;;18.60;99.90;;;;;;4954349;29;20669;-76
2023/05/04 06:53:26;;;;;;;17.17;15.98;;;18.90;99.90;;;;;;4954384;29;20285;-76
2023/05/04 06:55:51;;;;;;;14.38;13.27;;;18.90;99.90;;;;;;4953809;28;20205;-76
2023/05/04 06:58:20;;;;;;;15.63;14.02;;;18.90;99.90;;;;;;4955100;29;20202;-75
2023/05/04 07:00:47;;;;;;;12.45;11.55;;;19.20;99.90;;;;;;4955867;28;20217;-77
2023/05/04 07:03:13;;;;;;;11.35;10.45;;;19.60;99.90;;;;;;4954242;29;20588;-77
2023/05/04 07:05:38;;;;;;;11.68;10.55;;;19.70;99.90;;;;;;4954149;28;20200;-76
2023/05/04 07:08:05;;;;;;;10.68;9.45;;;19.40;99.90;;;;;;4955180;29;20178;-76
2023/05/04 07:10:31;;;;;;;21.67;11.13;;;19.50;99.90;;;;;;4955110;29;20615;-76
2023/05/04 07:12:57;;;;;;;13.85;12.50;;;19.20;99.90;;;;;;4954608;28;20193;-77
2023/05/04 07:15:23;;;;;;;13.55;12.52;;;18.90;99.90;;;;;;4963472;28;20247;-76
2023/05/04 07:17:49;;;;;;;12.63;11.32;;;18.70;99.90;;;;;;4973694;28;20189;-76
2023/05/04 07:20:14;;;;;;;14.52;13.38;;;18.80;99.90;;;;;;4973964;28;20240;-76
2023/05/04 07:22:40;;;;;;;14.25;13.05;;;18.70;99.90;;;;;;4979316;28;20220;-76
2023/05/04 07:25:07;;;;;;;15.02;13.82;;;18.60;99.90;;;;;;4989261;28;20499;-78
2023/05/04 07:27:36;;;;;;;13.87;12.77;;;18.70;99.90;;;;;;4984382;28;20307;-77
2023/05/04 07:30:05;;;;;;;14.37;13.27;;;18.70;99.90;;;;;;4974438;28;20176;-77
2023/05/04 07:32:31;;;;;;;11.05;10.10;;;18.90;99.90;;;;;;4975247;28;20293;-77
2023/05/04 07:34:57;;;;;;;10.18;9.35;;;19.50;99.90;;;;;;4974884;28;20201;-77
2023/05/04 07:37:23;;;;;;;9.80;9.02;;;19.70;99.90;;;;;;4980152;28;20236;-77
2023/05/04 07:39:48;;;;;;;9.73;8.88;;;19.60;99.90;;;;;;4982222;28;20191;-77
2023/05/04 07:42:15;;;;;;;9.07;8.13;;;19.80;99.90;;;;;;4976638;28;20266;-77
2023/05/04 07:44:41;;;;;;;8.40;7.70;;;19.80;99.90;;;;;;4972479;28;20181;-76
2023/05/04 07:47:07;;;;;;;10.52;9.60;;;19.80;99.90;;;;;;4973734;28;20208;-77
2023/05/04 07:49:32;;;;;;;12.43;11.43;;;19.90;99.90;;;;;;4972908;28;20680;-77
2023/05/04 07:51:58;;;;;;;15.88;14.63;;;20.20;99.90;;;;;;4976130;28;20181;-77
2023/05/04 07:54:24;;;;;;;14.25;13.35;;;20.30;99.50;;;;;;4974559;28;20185;-77
2023/05/04 07:56:50;;;;;;;11.10;10.25;;;20.10;99.90;;;;;;4980363;28;20708;-77
2023/05/04 07:59:17;;;;;;;10.80;9.93;;;20.30;98.90;;;;;;4976559;28;20677;-77
2023/05/04 08:01:43;;;;;;;11.35;10.45;;;20.40;98.90;;;;;;4974512;28;20212;-77
2023/05/04 08:04:09;;;;;;;9.50;8.45;;;20.30;99.00;;;;;;4974569;28;20192;-77
2023/05/04 08:06:38;;;;;;;9.63;8.80;;;20.50;98.50;;;;;;4974956;28;20714;-77
2023/05/04 08:09:05;;;;;;;9.00;8.20;;;20.40;98.00;;;;;;4974149;28;20188;-77
2023/05/04 08:11:33;;;;;;;9.63;8.93;;;20.40;97.00;;;;;;4974306;28;20195;-77
2023/05/04 08:14:00;;;;;;;8.52;7.82;;;20.10;97.70;;;;;;4974151;28;20654;-76
2023/05/04 08:16:27;;;;;;;8.32;7.72;;;20.50;97.90;;;;;;4965612;28;20267;-76
2023/05/04 08:18:53;;;;;;;9.32;7.95;;;20.40;96.60;;;;;;4955721;28;20189;-77
2023/05/04 08:21:18;;;;;;;8.73;7.93;;;19.90;95.70;;;;;;4952650;28;20209;-77
2023/05/04 08:23:44;;;;;;;7.95;7.35;;;20.20;96.10;;;;;;4953488;28;20174;-77
2023/05/04 08:26:10;;;;;;;6.65;6.05;;;20.60;94.40;;;;;;4953561;28;20201;-77
2023/05/04 08:28:37;;;;;;;8.43;7.72;;;20.50;93.60;;;;;;4954146;29;20197;-77
2023/05/04 08:31:03;;;;;;;6.30;5.90;;;20.10;94.40;;;;;;4954277;28;20677;-77
2023/05/04 08:33:29;;;;;;;6.70;6.10;;;20.10;94.00;;;;;;4955504;28;20188;-77
2023/05/04 08:35:55;;;;;;;7.28;6.68;;;20.10;93.40;;;;;;4958859;28;20213;-77
2023/05/04 08:38:21;;;;;;;8.13;6.45;;;20.50;93.30;;;;;;4956167;29;20322;-77
2023/05/04 08:40:47;;;;;;;7.15;6.65;;;20.70;92.40;;;;;;4954669;29;20244;-77
2023/05/04 08:43:12;;;;;;;7.70;6.97;;;20.70;92.40;;;;;;4954090;29;20189;-77
2023/05/04 08:45:39;;;;;;;12.80;11.90;;;20.90;92.70;;;;;;4953738;28;20879;-77
2023/05/04 08:48:06;;;;;;;21.85;20.65;;;21.00;91.60;;;;;;4953944;28;20178;-77
2023/05/04 08:50:33;;;;;;;41.13;39.05;;;21.30;89.80;;;;;;4954413;28;20253;-77
2023/05/04 08:53:10;;;;;;;43.72;41.35;;;21.40;90.00;;;;;;4953458;28;20209;-78
2023/05/04 08:55:37;;;;;;;49.38;46.75;;;21.50;87.50;;;;;;4953945;28;20205;-77
2023/05/04 08:58:08;;;;;;;44.72;42.33;;;21.60;87.50;;;;;;4952912;28;20248;-77
2023/05/04 09:00:35;;;;;;;53.88;51.05;;;21.70;88.20;;;;;;4953185;28;20633;-77
2023/05/04 09:03:03;;;;;;;48.83;46.15;;;21.70;84.40;;;;;;4953407;28;20182;-77
2023/05/04 09:05:30;;;;;;;48.60;46.05;;;21.90;84.40;;;;;;4953843;28;20712;-78
2023/05/04 09:07:57;;;;;;;45.70;43.15;;;22.10;84.90;;;;;;4955512;28;20641;-78
2023/05/04 09:10:23;;;;;;;43.60;41.40;;;22.00;82.90;;;;;;4954460;29;20185;-77
2023/05/04 09:12:52;;;;;;;34.35;32.47;;;22.10;80.90;;;;;;4962749;28;20200;-77
2023/05/04 09:15:19;;;;;;;27.95;26.55;;;22.30;80.70;;;;;;4979729;23;20549;-72
2023/05/04 09:17:56;;;;;;;41.97;39.67;;;21.80;80.00;;;;;;4990694;28;20185;-72
2023/05/04 09:20:22;;;;;;;32.35;30.65;;;21.50;81.60;;;;;;4991682;28;20265;-72
2023/05/04 09:23:03;;;;;;;29.10;27.52;;;21.90;79.90;;;;;;4988533;28;20213;-72
2023/05/04 09:25:28;;;;;;;21.55;20.33;;;22.30;78.90;;;;;;4990402;28;20200;-73
2023/05/04 09:27:55;;;;;;;20.10;18.75;;;22.20;77.50;;;;;;4990098;28;20663;-72
2023/05/04 09:30:20;;;;;;;18.83;17.42;;;22.50;77.30;;;;;;4990972;28;20214;-73
2023/05/04 09:32:48;;;;;;;10.45;8.75;;;22.80;77.70;;;;;;4989443;28;20640;-73
2023/05/04 09:35:16;;;;;;;6.68;6.18;;;22.90;74.50;;;;;;4983375;28;20591;-72
2023/05/04 09:37:46;;;;;;;7.82;7.13;;;22.90;73.30;;;;;;4970228;28;20192;-73
2023/05/04 09:40:13;;;;;;;7.85;7.35;;;22.80;75.20;;;;;;4971798;28;20216;-73
2023/05/04 09:42:39;;;;;;;8.38;7.88;;;22.50;75.10;;;;;;4967228;28;20269;-72
2023/05/04 09:45:07;;;;;;;5.88;5.40;;;22.60;75.40;;;;;;4965545;28;20281;-72
2023/05/04 09:47:37;;;;;;;7.10;6.38;;;23.00;71.50;;;;;;4970276;28;20328;-72
2023/05/04 09:50:25;;;;;;;6.13;5.72;;;23.00;71.30;;;;;;4971889;28;20685;-72
2023/05/04 09:52:52;;;;;;;9.90;5.00;;;23.10;70.80;;;;;;4970633;28;20208;-72
2023/05/04 09:55:19;;;;;;;5.18;4.82;;;23.20;69.40;;;;;;4970419;28;20201;-72
2023/05/04 09:57:46;;;;;;;5.40;5.10;;;22.80;69.50;;;;;;4971725;28;20189;-71
2023/05/04 10:00:16;;;;;;;5.30;5.00;;;22.80;68.90;;;;;;4972044;28;20185;-72
2023/05/04 10:02:46;;;;;;;8.43;5.38;;;22.80;70.30;;;;;;4970853;28;20220;-72
2023/05/04 10:05:16;;;;;;;6.97;6.45;;;23.30;68.70;;;;;;4971987;28;20193;-72
2023/05/04 10:07:43;;;;;;;6.10;5.57;;;23.10;67.70;;;;;;4974720;28;20185;-72
2023/05/04 10:10:12;;;;;;;6.03;5.60;;;23.10;69.00;;;;;;4975532;28;20184;-72
2023/05/04 10:12:38;;;;;;;6.20;5.70;;;23.60;68.80;;;;;;4975406;28;20239;-72
2023/05/04 10:15:08;;;;;;;5.78;5.20;;;23.60;68.00;;;;;;4975146;28;20259;-71
2023/05/04 10:17:49;;;;;;;6.22;5.72;;;24.30;66.80;;;;;;4973880;28;20642;-72
2023/05/04 10:20:21;;;;;;;5.80;5.30;;;24.40;64.80;;;;;;4975298;28;20201;-73
2023/05/04 10:23:04;;;;;;;5.60;5.30;;;24.50;64.40;;;;;;4975152;28;20212;-72
2023/05/04 10:25:56;;;;;;;6.53;6.03;;;24.20;66.90;;;;;;4975416;28;20275;-71
2023/05/04 10:28:22;;;;;;;5.72;5.22;;;24.10;65.50;;;;;;4974920;28;20211;-72
2023/05/04 10:30:58;;;;;;;6.15;5.65;;;23.70;65.50;;;;;;4989316;28;20192;-72
2023/05/04 10:33:24;;;;;;;6.20;5.60;;;23.90;63.90;;;;;;4995962;28;20271;-71
2023/05/04 10:35:53;;;;;;;4.93;4.53;;;24.80;64.10;;;;;;4993437;28;20700;-72
2023/05/04 10:38:37;;;;;;;6.10;5.53;;;24.90;62.00;;;;;;4994628;28;20184;-72
2023/05/04 10:41:17;;;;;;;5.93;5.53;;;24.90;62.90;;;;;;4993645;28;20251;-71
2023/05/04 10:43:47;;;;;;;6.75;6.15;;;25.50;61.80;;;;;;4994672;28;20527;-70
2023/05/04 10:46:20;;;;;;;7.15;6.53;;;25.20;60.10;;;;;;4993437;28;20277;-71
2023/05/04 10:48:47;;;;;;;6.85;6.25;;;25.10;60.30;;;;;;4994113;28;20186;-71
2023/05/04 10:51:21;;;;;;;7.82;6.43;;;25.20;59.80;;;;;;4994587;28;20231;-71
2023/05/04 10:53:47;;;;;;;8.13;7.32;;;25.20;60.80;;;;;;4995338;28;20202;-72
2023/05/04 10:56:23;;;;;;;8.90;8.40;;;25.90;60.30;;;;;;4995210;28;20200;-71
2023/05/04 10:58:50;;;;;;;7.88;7.28;;;26.80;57.80;;;;;;5010101;28;20191;-73
2023/05/04 11:01:17;;;;;;;10.32;9.73;;;26.60;58.70;;;;;;4999511;28;20212;-71
2023/05/04 11:03:43;;;;;;;12.18;11.48;;;27.00;57.60;;;;;;4994432;28;20212;-72
2023/05/04 11:06:22;;;;;;;11.57;10.85;;;27.40;55.70;;;;;;4994064;28;20196;-72
2023/05/04 11:09:01;;;;;;;13.88;13.13;;;26.80;55.90;;;;;;4993604;28;20235;-71
2023/05/04 11:11:27;;;;;;;16.48;15.48;;;26.20;56.50;;;;;;4992445;28;20211;-71
2023/05/04 11:13:53;;;;;;;9.93;9.13;;;26.10;57.30;;;;;;5009055;28;20620;-71
2023/05/04 11:16:26;;;;;;;9.88;9.00;;;25.90;58.00;;;;;;4993669;28;20270;-72
2023/05/04 11:19:06;;;;;;;9.00;8.30;;;25.70;58.10;;;;;;4993288;28;20624;-72
2023/05/04 11:21:32;;;;;;;8.27;7.78;;;25.60;59.40;;;;;;4992833;28;20212;-72
2023/05/04 11:23:59;;;;;;;9.98;9.18;;;26.10;59.20;;;;;;4993695;28;20176;-71
2023/05/04 11:26:25;;;;;;;9.45;8.77;;;25.80;58.10;;;;;;4993740;28;20232;-72
2023/05/04 11:28:51;;;;;;;11.50;10.77;;;25.60;58.80;;;;;;4992575;28;20183;-72
2023/05/04 11:31:18;;;;;;;10.07;9.48;;;25.60;57.30;;;;;;4992355;28;20185;-72
2023/05/04 11:33:53;;;;;;;10.00;9.30;;;25.60;57.50;;;;;;4994065;28;20597;-71
2023/05/04 11:36:20;;;;;;;9.95;9.25;;;26.20;57.50;;;;;;4993024;28;20687;-72
2023/05/04 11:38:46;;;;;;;14.23;12.43;;;26.20;57.50;;;;;;4993111;28;20196;-72
2023/05/04 11:41:12;;;;;;;12.55;11.48;;;26.50;56.50;;;;;;4993274;28;20215;-73
2023/05/04 11:43:40;;;;;;;10.73;10.02;;;26.40;55.90;;;;;;4992250;28;20184;-72
2023/05/04 11:46:07;;;;;;;10.00;9.20;;;26.20;57.90;;;;;;4993386;28;20682;-72
2023/05/04 11:48:37;;;;;;;12.23;11.45;;;26.50;57.90;;;;;;4992899;28;20207;-72
2023/05/04 11:51:04;;;;;;;11.75;10.85;;;26.90;56.00;;;;;;4993417;28;20192;-72
2023/05/04 11:53:37;;;;;;;9.48;8.88;;;26.40;57.50;;;;;;4992254;28;20185;-72
2023/05/04 11:56:04;;;;;;;11.95;11.18;;;26.60;59.00;;;;;;4993177;28;20204;-72
2023/05/04 11:58:30;;;;;;;13.73;12.88;;;27.30;56.70;;;;;;4991780;28;20184;-72
2023/05/04 12:00:57;;;;;;;11.20;10.50;;;27.70;55.90;;;;;;4993229;28;20208;-77
2023/05/04 12:03:25;;;;;;;19.45;17.88;;;28.40;55.00;;;;;;4987378;28;21030;-72
2023/05/04 12:05:54;;;;;;;16.08;15.18;;;28.10;49.30;;;;;;4972018;28;20197;-72
2023/05/04 12:08:30;;;;;;;17.60;16.40;;;27.60;52.70;;;;;;4973258;28;20181;-71
2023/05/04 12:11:11;;;;;;;19.95;18.38;;;27.70;50.70;;;;;;4973739;28;20650;-71
2023/05/04 12:13:38;;;;;;;20.95;19.70;;;27.90;50.50;;;;;;4973659;28;20189;-71
2023/05/04 12:16:17;;;;;;;26.83;25.45;;;28.20;49.90;;;;;;4973433;28;20231;-71
2023/05/04 12:18:46;;;;;;;32.90;31.00;;;28.80;48.90;;;;;;4971465;28;20221;-72
2023/05/04 12:21:18;;;;;;;32.28;30.60;;;28.80;49.10;;;;;;4972243;28;20677;-72
2023/05/04 12:23:45;;;;;;;32.90;31.20;;;28.60;49.10;;;;;;4973228;28;20181;-71
2023/05/04 12:26:12;;;;;;;25.80;24.50;;;29.40;48.40;;;;;;4973104;28;20264;-72
2023/05/04 12:28:41;;;;;;;26.67;24.98;;;30.00;47.60;;;;;;4972636;28;20231;-71
2023/05/04 12:31:07;;;;;;;29.95;28.38;;;30.10;49.20;;;;;;4971750;28;20723;-73
2023/05/04 12:33:34;;;;;;;34.17;32.42;;;29.50;48.60;;;;;;4972657;28;20567;-74
2023/05/04 12:36:01;;;;;;;36.28;34.38;;;28.60;50.10;;;;;;4971760;28;20231;-71
2023/05/04 12:38:28;;;;;;;34.80;32.95;;;28.50;50.20;;;;;;4965443;28;20193;-71
2023/05/04 12:40:57;;;;;;;28.20;26.50;;;28.80;49.20;;;;;;4952235;28;20206;-71
2023/05/04 12:43:23;;;;;;;29.85;28.30;;;29.30;46.60;;;;;;4953321;28;20245;-71
2023/05/04 12:45:50;;;;;;;29.70;27.88;;;29.30;47.30;;;;;;4953669;28;20202;-72
2023/05/04 12:48:16;;;;;;;33.55;31.77;;;29.00;47.20;;;;;;4952464;28;20193;-72
2023/05/04 12:50:46;;;;;;;32.47;30.48;;;28.80;48.40;;;;;;4959075;28;20182;-72
2023/05/04 12:53:12;;;;;;;29.80;28.10;;;29.00;49.40;;;;;;4953832;28;20193;-72
2023/05/04 12:55:38;;;;;;;33.28;31.48;;;29.20;47.80;;;;;;4953607;28;20209;-72
2023/05/04 12:58:04;;;;;;;30.58;28.92;;;29.30;47.90;;;;;;4953188;28;20201;-72
2023/05/04 13:00:30;;;;;;;32.92;31.27;;;29.20;48.00;;;;;;4953471;28;20276;-72
2023/05/04 13:02:57;;;;;;;28.40;26.80;;;28.90;47.50;;;;;;4953600;29;20192;-72
2023/05/04 13:05:23;;;;;;;30.90;29.27;;;29.10;47.40;;;;;;4953414;28;20198;-72
2023/05/04 13:07:49;;;;;;;31.35;29.77;;;29.70;47.70;;;;;;4952993;29;20192;-72
2023/05/04 13:10:15;;;;;;;33.60;31.60;;;30.00;46.60;;;;;;4953512;28;20178;-72
2023/05/04 13:12:41;;;;;;;32.40;30.48;;;30.00;46.70;;;;;;4952417;29;20643;-72
2023/05/04 13:15:07;;;;;;;27.00;25.40;;;29.80;46.10;;;;;;4951946;28;20217;-72
2023/05/04 13:17:33;;;;;;;40.25;37.78;;;29.00;47.10;;;;;;4953159;28;20272;-71
2023/05/04 13:20:00;;;;;;;44.85;42.22;;;28.30;49.30;;;;;;4953477;28;20268;-72
2023/05/04 13:22:27;;;;;;;44.63;42.28;;;28.80;49.20;;;;;;4953235;28;20594;-72
2023/05/04 13:24:53;;;;;;;34.88;32.88;;;28.90;48.90;;;;;;4952976;28;20178;-72
2023/05/04 13:27:19;;;;;;;31.50;29.70;;;29.00;48.10;;;;;;4952950;29;20737;-73
2023/05/04 13:29:45;;;;;;;33.20;31.38;;;29.30;47.40;;;;;;4953083;28;20181;-72
2023/05/04 13:32:10;;;;;;;34.55;32.60;;;30.50;44.90;;;;;;4952963;28;20190;-72
2023/05/04 13:34:36;;;;;;;29.92;28.13;;;31.30;44.10;;;;;;4952046;29;20272;-72
2023/05/04 13:37:02;;;;;;;26.98;25.48;;;30.90;44.90;;;;;;4952688;28;20216;-72
2023/05/04 13:39:28;;;;;;;29.88;28.27;;;30.10;45.90;;;;;;4953090;28;20644;-72
2023/05/04 13:41:53;;;;;;;29.42;27.63;;;29.70;46.70;;;;;;4956584;28;20221;-72
2023/05/04 13:44:19;;;;;;;33.97;32.17;;;29.70;46.70;;;;;;4956821;28;20177;-72
2023/05/04 13:46:45;;;;;;;32.28;30.33;;;29.70;47.10;;;;;;4955733;29;20201;-73
2023/05/04 13:49:10;;;;;;;31.58;29.85;;;30.30;47.00;;;;;;4956627;28;20662;-72
2023/05/04 13:51:36;;;;;;;37.47;35.50;;;30.60;45.50;;;;;;4956952;29;20185;-72
2023/05/04 13:54:02;;;;;;;32.50;30.77;;;30.80;44.60;;;;;;4956000;29;20266;-72
2023/05/04 13:56:28;;;;;;;26.17;24.60;;;30.20;44.10;;;;;;4957103;28;20216;-72
2023/05/04 13:58:54;;;;;;;34.67;32.75;;;29.70;44.60;;;;;;4956477;28;20182;-72
2023/05/04 14:01:22;;;;;;;34.72;32.25;;;29.60;46.00;;;;;;4955575;29;20608;-72
2023/05/04 14:03:47;;;;;;;29.33;27.77;;;29.70;46.20;;;;;;4956886;28;20276;-72
2023/05/04 14:06:13;;;;;;;31.83;30.05;;;30.40;45.10;;;;;;4956738;28;20297;-72
2023/05/04 14:08:39;;;;;;;28.95;27.23;;;30.20;45.10;;;;;;4955861;28;20560;-72
2023/05/04 14:11:05;;;;;;;28.60;27.08;;;29.90;44.60;;;;;;4955452;29;20200;-73
2023/05/04 14:13:31;;;;;;;36.15;34.28;;;29.80;45.50;;;;;;4956528;28;20262;-72
2023/05/04 14:15:57;;;;;;;28.15;26.55;;;30.70;45.00;;;;;;4955032;28;20256;-72
2023/05/04 14:18:23;;;;;;;28.65;27.02;;;31.40;43.90;;;;;;4955986;28;20277;-72
2023/05/04 14:20:49;;;;;;;29.33;27.73;;;31.40;43.10;;;;;;4955024;29;20265;-72
2023/05/04 14:23:15;;;;;;;31.13;29.42;;;30.90;44.70;;;;;;4955330;28;20173;-72
2023/05/04 14:25:41;;;;;;;28.00;26.30;;;30.40;45.00;;;;;;4956415;29;20206;-72
2023/05/04 14:28:07;;;;;;;36.03;33.95;;;30.70;44.50;;;;;;4955118;28;20178;-72
2023/05/04 14:30:33;;;;;;;32.13;29.67;;;31.40;44.30;;;;;;4955078;29;20225;-72
2023/05/04 14:32:59;;;;;;;31.73;30.10;;;31.20;43.90;;;;;;4956630;28;20213;-72
2023/05/04 14:35:24;;;;;;;37.20;35.33;;;30.40;45.30;;;;;;4954670;28;20694;-72
2023/05/04 14:37:50;;;;;;;27.30;25.67;;;30.30;46.30;;;;;;4954502;29;20185;-72
2023/05/04 14:40:16;;;;;;;29.25;27.60;;;30.00;45.60;;;;;;4958105;29;20591;-73
2023/05/04 14:42:42;;;;;;;39.97;37.80;;;29.80;45.60;;;;;;4957510;28;20182;-73
2023/05/04 14:45:08;;;;;;;40.30;38.22;;;30.50;44.80;;;;;;4955860;29;20213;-72
2023/05/04 14:47:34;;;;;;;29.15;27.30;;;30.90;44.60;;;;;;4955557;28;20268;-73
2023/05/04 14:50:01;;;;;;;21.65;20.45;;;31.40;43.70;;;;;;4954686;29;20526;-73
2023/05/04 14:52:26;;;;;;;16.85;15.85;;;31.70;42.50;;;;;;4955449;28;20182;-73
2023/05/04 14:54:52;;;;;;;12.10;11.30;;;31.90;41.60;;;;;;4954711;28;20729;-73
2023/05/04 14:57:18;;;;;;;11.45;10.75;;;32.00;41.50;;;;;;4970321;28;20213;-73
2023/05/04 14:59:44;;;;;;;12.52;11.63;;;31.70;41.80;;;;;;4957348;28;20657;-72
2023/05/04 15:02:11;;;;;;;11.30;10.70;;;31.30;42.50;;;;;;4957991;28;20209;-73
2023/05/04 15:04:37;;;;;;;16.70;15.75;;;31.50;42.40;;;;;;4956124;28;20185;-73
2023/05/04 15:07:04;;;;;;;19.95;18.85;;;31.00;42.50;;;;;;4955242;28;20292;-72
2023/05/04 15:09:30;;;;;;;20.00;18.83;;;30.70;42.50;;;;;;4954405;28;20233;-73
2023/05/04 15:11:56;;;;;;;24.33;22.95;;;31.20;42.50;;;;;;4955573;28;20193;-72
2023/05/04 15:14:22;;;;;;;24.67;23.38;;;30.40;43.40;;;;;;4955472;28;20198;-73
2023/05/04 15:16:48;;;;;;;29.48;27.90;;;30.30;43.70;;;;;;4986583;23;20233;-71
2023/05/04 15:19:14;;;;;;;27.02;25.58;;;30.40;43.90;;;;;;4974146;28;20566;-71
2023/05/04 15:21:40;;;;;;;26.30;24.90;;;30.30;43.90;;;;;;4974381;28;20307;-71
2023/05/04 15:24:06;;;;;;;30.10;28.50;;;29.70;44.20;;;;;;4974468;28;20177;-71
2023/05/04 15:26:33;;;;;;;31.95;30.33;;;29.70;44.10;;;;;;4974199;28;20208;-71
2023/05/04 15:28:59;;;;;;;30.42;28.52;;;29.90;44.40;;;;;;4973947;28;20184;-71
2023/05/04 15:31:24;;;;;;;31.30;29.50;;;29.20;45.10;;;;;;4974126;28;20663;-71
2023/05/04 15:33:50;;;;;;;31.15;29.35;;;29.30;45.60;;;;;;4974207;28;20567;-71